Time;durP1;ratioP1;P1;durP2;ratioP2;P2;SDS_P1;SDS_P2;PMS_P1;PMS_P2;Temp;Humidity;BMP_temperature;BMP_pressure;BME280_temperature;BME280_humidity;BME280_pressure;Samples;Min_cycle;Max_cycle;Signal;HPM_P1;HPM_P2
2021/06/05 00:00:28;;;;;;;14.75;13.55;;;15.60;86.80;;;;;;5215633;28;20129;-72
2021/06/05 00:03:01;;;;;;;17.10;15.48;;;15.60;86.20;;;;;;5215746;28;20169;-73
2021/06/05 00:05:47;;;;;;;15.07;13.93;;;15.60;86.90;;;;;;5215730;28;20127;-71
2021/06/05 00:08:21;;;;;;;15.20;14.00;;;15.60;86.10;;;;;;5216456;28;20127;-71
2021/06/05 00:10:57;;;;;;;14.95;13.68;;;15.50;86.20;;;;;;5214711;28;20107;-71
2021/06/05 00:13:36;;;;;;;14.57;13.38;;;15.60;86.20;;;;;;5214677;28;20048;-72
2021/06/05 00:16:16;;;;;;;14.75;13.55;;;15.60;86.10;;;;;;5187954;28;20122;-72
2021/06/05 00:18:49;;;;;;;15.27;14.07;;;15.60;86.60;;;;;;5215812;28;20443;-71
2021/06/05 00:21:24;;;;;;;15.20;14.00;;;15.60;86.60;;;;;;5212312;28;20103;-73
2021/06/05 00:23:57;;;;;;;16.38;14.98;;;15.70;86.80;;;;;;5214686;28;20041;-72
2021/06/05 00:26:29;;;;;;;15.80;14.50;;;15.70;86.90;;;;;;5195739;28;20556;-72
2021/06/05 00:29:01;;;;;;;16.65;15.25;;;15.80;87.10;;;;;;5216673;28;20119;-73
2021/06/05 00:31:33;;;;;;;17.33;15.98;;;15.80;87.10;;;;;;5215604;28;20172;-72
2021/06/05 00:34:05;;;;;;;16.88;15.43;;;15.80;87.10;;;;;;5216071;28;20657;-72
2021/06/05 00:36:39;;;;;;;17.58;16.08;;;15.80;87.60;;;;;;5215227;28;20041;-72
2021/06/05 00:39:11;;;;;;;17.13;15.57;;;15.80;88.10;;;;;;5198309;28;20425;-72
2021/06/05 00:41:44;;;;;;;18.20;16.63;;;15.80;88.40;;;;;;5213785;28;20037;-72
2021/06/05 00:44:16;;;;;;;17.48;16.08;;;15.80;88.60;;;;;;5197907;28;20128;-73
2021/06/05 00:46:49;;;;;;;18.60;16.90;;;15.80;88.60;;;;;;5196497;28;20045;-72
2021/06/05 00:49:21;;;;;;;17.02;15.45;;;15.80;88.80;;;;;;5213406;28;20043;-73
2021/06/05 00:51:56;;;;;;;16.83;15.43;;;15.80;87.40;;;;;;5213887;28;20669;-73
2021/06/05 00:54:34;;;;;;;17.05;15.65;;;15.90;88.10;;;;;;5215421;28;20068;-73
2021/06/05 00:57:06;;;;;;;17.20;15.55;;;15.90;88.70;;;;;;5194747;28;20044;-72
2021/06/05 00:59:42;;;;;;;16.90;15.57;;;15.90;88.40;;;;;;5193604;28;20128;-72
2021/06/05 01:02:14;;;;;;;16.63;15.23;;;16.00;87.60;;;;;;5192181;28;20868;-72
2021/06/05 01:04:47;;;;;;;16.77;15.38;;;16.00;87.60;;;;;;5197404;28;20061;-73
2021/06/05 01:07:24;;;;;;;16.77;15.38;;;16.00;87.60;;;;;;5195726;28;20052;-72
2021/06/05 01:10:04;;;;;;;16.48;14.93;;;16.00;88.40;;;;;;5177476;28;20049;-73
2021/06/05 01:12:53;;;;;;;16.50;15.10;;;16.00;87.70;;;;;;5176615;28;20045;-71
2021/06/05 01:15:29;;;;;;;16.55;15.15;;;16.00;87.30;;;;;;5196556;28;20044;-72
2021/06/05 01:18:11;;;;;;;16.55;15.10;;;16.10;87.70;;;;;;5185184;28;20588;-74
2021/06/05 01:21:01;;;;;;;15.38;14.10;;;16.10;87.50;;;;;;5194736;28;20045;-72
2021/06/05 01:23:44;;;;;;;16.17;14.65;;;16.10;87.20;;;;;;5201418;28;20040;-73
2021/06/05 01:26:30;;;;;;;15.90;14.50;;;16.10;87.30;;;;;;5200644;28;20041;-73
2021/06/05 01:29:14;;;;;;;14.95;13.75;;;16.10;87.80;;;;;;5219620;28;20659;-72
2021/06/05 01:31:55;;;;;;;16.08;14.68;;;16.20;86.50;;;;;;5199758;28;20052;-73
2021/06/05 01:34:35;;;;;;;16.55;15.23;;;16.20;86.80;;;;;;5200113;28;20057;-72
2021/06/05 01:37:11;;;;;;;15.70;14.40;;;16.20;86.30;;;;;;5217682;28;20103;-73
2021/06/05 01:39:54;;;;;;;15.88;14.40;;;16.20;86.90;;;;;;5216104;28;20045;-72
2021/06/05 01:42:32;;;;;;;16.02;14.52;;;16.10;87.10;;;;;;5199721;28;20103;-72
2021/06/05 01:45:10;;;;;;;14.93;13.82;;;16.00;86.90;;;;;;5217341;28;20128;-73
2021/06/05 01:47:42;;;;;;;15.13;13.82;;;16.10;87.10;;;;;;5199060;28;20116;-72
2021/06/05 01:50:17;;;;;;;14.90;13.70;;;16.10;86.70;;;;;;5194656;28;20077;-73
2021/06/05 01:52:51;;;;;;;15.63;14.18;;;16.10;87.10;;;;;;5217086;28;20041;-72
2021/06/05 01:55:32;;;;;;;15.75;14.32;;;16.00;87.40;;;;;;5200476;28;20136;-72
2021/06/05 01:58:13;;;;;;;14.77;13.68;;;16.00;87.50;;;;;;5196871;28;20049;-72
2021/06/05 02:01:05;;;;;;;15.30;13.90;;;16.00;87.50;;;;;;5198848;28;20508;-71
2021/06/05 02:03:43;;;;;;;14.35;13.15;;;15.90;87.70;;;;;;5216824;28;20040;-72
2021/06/05 02:06:28;;;;;;;14.27;13.18;;;15.90;87.60;;;;;;5200348;28;20049;-72
2021/06/05 02:09:08;;;;;;;14.38;13.13;;;15.90;87.60;;;;;;5201492;28;20072;-72
2021/06/05 02:12:09;;;;;;;14.15;12.95;;;15.90;87.30;;;;;;5216411;28;21614;-73
2021/06/05 02:15:05;;;;;;;14.07;13.02;;;15.80;87.40;;;;;;5197784;28;20055;-72
2021/06/05 02:17:40;;;;;;;15.18;13.88;;;15.90;87.00;;;;;;5199106;28;20049;-72
2021/06/05 02:20:27;;;;;;;14.00;12.82;;;15.90;87.30;;;;;;5197449;28;20738;-73
2021/06/05 02:23:11;;;;;;;14.95;13.65;;;15.80;87.50;;;;;;5217828;28;20033;-72
2021/06/05 02:25:44;;;;;;;14.67;13.43;;;15.80;87.30;;;;;;5217052;28;20504;-73
2021/06/05 02:28:17;;;;;;;14.60;13.32;;;15.70;87.30;;;;;;5200824;28;20056;-74
2021/06/05 02:30:49;;;;;;;14.45;13.35;;;15.80;87.20;;;;;;5216291;28;20554;-72
2021/06/05 02:33:23;;;;;;;14.05;12.95;;;15.70;87.50;;;;;;5217642;28;20056;-73
2021/06/05 02:36:00;;;;;;;13.93;12.82;;;15.80;87.40;;;;;;5193789;28;20037;-72
2021/06/05 02:38:46;;;;;;;13.52;12.38;;;15.70;87.30;;;;;;5218496;28;20555;-71
2021/06/05 02:41:23;;;;;;;13.10;12.10;;;15.70;87.10;;;;;;5215171;28;20051;-72
2021/06/05 02:43:56;;;;;;;13.65;12.55;;;15.60;87.20;;;;;;5215700;28;20044;-73
2021/06/05 02:46:38;;;;;;;14.20;13.00;;;15.60;87.20;;;;;;5199606;28;20064;-72
2021/06/05 02:49:19;;;;;;;14.30;13.20;;;15.70;87.30;;;;;;5218351;28;20060;-72
2021/06/05 02:52:34;;;;;;;13.82;12.65;;;15.60;87.30;;;;;;5198988;28;20044;-72
2021/06/05 02:55:17;;;;;;;15.07;13.77;;;15.60;87.50;;;;;;5216851;28;20055;-72
2021/06/05 02:57:51;;;;;;;14.60;13.50;;;15.60;87.40;;;;;;5216518;28;20496;-71
2021/06/05 03:00:32;;;;;;;14.00;12.90;;;15.60;87.60;;;;;;5199927;28;20048;-72
2021/06/05 03:03:10;;;;;;;14.13;13.13;;;15.60;87.40;;;;;;5216541;28;20669;-72
2021/06/05 03:05:43;;;;;;;14.43;13.13;;;15.60;87.60;;;;;;5216306;28;20516;-71
2021/06/05 03:08:26;;;;;;;14.95;13.73;;;15.50;87.40;;;;;;5199644;28;20266;-71
2021/06/05 03:11:04;;;;;;;14.82;13.63;;;15.50;87.50;;;;;;5198856;28;20080;-72
2021/06/05 03:13:40;;;;;;;14.05;12.77;;;15.50;87.60;;;;;;5218242;28;20056;-72
2021/06/05 03:16:14;;;;;;;13.73;12.63;;;15.50;87.50;;;;;;5216396;28;20045;-72
2021/06/05 03:18:50;;;;;;;13.30;12.30;;;15.50;87.50;;;;;;5215736;28;20044;-71
2021/06/05 03:21:22;;;;;;;13.75;12.55;;;15.40;87.00;;;;;;5214709;28;20053;-72
2021/06/05 03:24:00;;;;;;;13.50;12.50;;;15.50;87.00;;;;;;5193251;28;20160;-72
2021/06/05 03:26:36;;;;;;;13.32;12.25;;;15.50;86.90;;;;;;5213972;28;20049;-73
2021/06/05 03:29:13;;;;;;;13.93;12.73;;;15.50;86.80;;;;;;5217394;28;20045;-72
2021/06/05 03:31:51;;;;;;;14.32;13.23;;;15.50;87.30;;;;;;5197017;28;20041;-72
2021/06/05 03:34:25;;;;;;;13.80;12.70;;;15.40;86.90;;;;;;5199702;28;20530;-72
2021/06/05 03:36:57;;;;;;;13.55;12.55;;;15.40;87.60;;;;;;5182978;28;20041;-72
2021/06/05 03:39:30;;;;;;;13.25;12.25;;;15.40;86.80;;;;;;5192047;28;20159;-73
2021/06/05 03:42:05;;;;;;;13.32;12.32;;;15.30;87.10;;;;;;5190330;28;20424;-74
2021/06/05 03:44:38;;;;;;;13.65;12.65;;;15.20;87.10;;;;;;5216820;28;20617;-72
2021/06/05 03:47:11;;;;;;;13.45;12.45;;;15.20;87.40;;;;;;5214952;28;20780;-73
2021/06/05 03:49:44;;;;;;;13.63;12.52;;;15.20;87.40;;;;;;5181730;28;20765;-72
2021/06/05 03:52:22;;;;;;;13.77;12.68;;;15.20;87.60;;;;;;5194439;28;20064;-72
2021/06/05 03:54:57;;;;;;;13.55;12.45;;;15.20;87.50;;;;;;5198946;28;20056;-73
2021/06/05 03:57:32;;;;;;;13.68;12.55;;;15.20;87.10;;;;;;5215850;28;20072;-72
2021/06/05 04:00:11;;;;;;;13.15;12.15;;;15.30;87.10;;;;;;5193253;28;20874;-71
2021/06/05 04:02:44;;;;;;;12.98;11.98;;;15.20;86.90;;;;;;5216815;28;20041;-73
2021/06/05 04:05:16;;;;;;;13.48;12.38;;;15.20;86.80;;;;;;5214945;28;20424;-73
2021/06/05 04:07:48;;;;;;;14.10;12.93;;;15.30;87.10;;;;;;5217498;28;20404;-73
2021/06/05 04:10:23;;;;;;;13.88;12.77;;;15.30;87.70;;;;;;5195499;28;20754;-73
2021/06/05 04:12:58;;;;;;;14.15;13.05;;;15.30;87.90;;;;;;5214222;28;20068;-73
2021/06/05 04:15:33;;;;;;;14.63;13.43;;;15.30;87.80;;;;;;5188675;28;20098;-72
2021/06/05 04:18:08;;;;;;;14.80;13.60;;;15.30;87.30;;;;;;5216444;28;20652;-72
2021/06/05 04:20:42;;;;;;;14.65;13.45;;;15.40;87.10;;;;;;5216052;28;20041;-72
2021/06/05 04:23:14;;;;;;;15.48;13.93;;;15.40;87.50;;;;;;5214720;28;20084;-72
2021/06/05 04:25:47;;;;;;;14.82;13.63;;;15.50;88.00;;;;;;5215543;28;20107;-73
2021/06/05 04:28:22;;;;;;;16.20;14.38;;;15.50;88.30;;;;;;5216851;28;20105;-73
2021/06/05 04:30:54;;;;;;;15.27;14.13;;;15.50;88.20;;;;;;5197940;28;20516;-73
2021/06/05 04:33:28;;;;;;;15.05;13.95;;;15.60;88.20;;;;;;5214983;28;20072;-73
2021/06/05 04:36:06;;;;;;;14.85;13.65;;;15.60;88.30;;;;;;5216079;28;20045;-73
2021/06/05 04:38:40;;;;;;;14.52;13.32;;;15.70;88.10;;;;;;5216791;28;20041;-73
2021/06/05 04:41:15;;;;;;;15.15;14.00;;;15.70;87.60;;;;;;5214635;28;20096;-73
2021/06/05 04:43:48;;;;;;;15.02;13.82;;;15.70;87.60;;;;;;5216601;28;20049;-73
2021/06/05 04:46:20;;;;;;;15.15;14.05;;;15.80;87.70;;;;;;5181241;28;20060;-73
2021/06/05 04:48:53;;;;;;;14.18;12.98;;;15.80;87.20;;;;;;5192876;28;20041;-73
2021/06/05 04:51:26;;;;;;;13.95;12.80;;;15.80;87.60;;;;;;5214124;28;20041;-73
2021/06/05 04:53:58;;;;;;;14.15;12.95;;;15.80;87.40;;;;;;5214647;28;20045;-72
2021/06/05 04:56:38;;;;;;;14.43;13.23;;;15.80;87.50;;;;;;5219398;28;20079;-73
2021/06/05 04:59:12;;;;;;;14.75;13.65;;;15.80;87.90;;;;;;5201918;28;20044;-72
2021/06/05 05:01:45;;;;;;;16.05;14.75;;;15.80;87.80;;;;;;5218960;28;20455;-73
2021/06/05 05:04:17;;;;;;;15.45;14.15;;;15.80;88.00;;;;;;5217274;28;20124;-72
2021/06/05 05:06:49;;;;;;;14.48;13.27;;;15.80;88.10;;;;;;5217875;28;20068;-72
2021/06/05 05:09:21;;;;;;;14.35;13.25;;;15.80;87.70;;;;;;5218421;28;20110;-73
2021/06/05 05:11:53;;;;;;;14.35;13.15;;;15.80;87.60;;;;;;5217440;28;20195;-73
2021/06/05 05:14:25;;;;;;;14.32;13.23;;;15.90;87.80;;;;;;5219935;28;20057;-72
2021/06/05 05:16:57;;;;;;;13.82;12.68;;;15.80;87.30;;;;;;5218729;28;20048;-73
2021/06/05 05:19:29;;;;;;;14.52;13.32;;;15.80;86.70;;;;;;5217716;28;20235;-72
2021/06/05 05:22:01;;;;;;;13.90;12.80;;;15.70;86.70;;;;;;5219114;28;20106;-73
2021/06/05 05:24:34;;;;;;;13.98;12.90;;;15.70;87.00;;;;;;5219305;28;20142;-72
2021/06/05 05:27:07;;;;;;;14.13;13.02;;;15.80;87.60;;;;;;5218138;28;20048;-72
2021/06/05 05:29:39;;;;;;;13.80;12.80;;;15.80;87.70;;;;;;5219244;28;20138;-71
2021/06/05 05:32:11;;;;;;;14.50;13.40;;;15.90;88.50;;;;;;5216389;28;20870;-71
2021/06/05 05:34:43;;;;;;;14.05;12.95;;;15.90;88.40;;;;;;5219174;28;20114;-72
2021/06/05 05:37:15;;;;;;;14.15;13.05;;;16.00;87.60;;;;;;5219789;28;20122;-72
2021/06/05 05:39:46;;;;;;;14.15;13.05;;;16.10;87.40;;;;;;5219050;28;20052;-73
2021/06/05 05:42:18;;;;;;;14.25;13.25;;;16.10;87.20;;;;;;5200116;28;20107;-72
2021/06/05 05:44:50;;;;;;;15.40;14.30;;;16.10;87.00;;;;;;5217634;28;20106;-72
2021/06/05 05:47:22;;;;;;;15.85;14.60;;;16.20;88.80;;;;;;5217293;28;20087;-72
2021/06/05 05:49:54;;;;;;;16.00;14.70;;;16.20;88.60;;;;;;5218949;28;20047;-73
2021/06/05 05:52:26;;;;;;;16.88;15.50;;;16.30;88.80;;;;;;5216544;28;20041;-73
2021/06/05 05:54:58;;;;;;;16.95;15.65;;;16.40;88.80;;;;;;5217047;28;20072;-72
2021/06/05 05:57:31;;;;;;;16.60;15.38;;;16.40;88.80;;;;;;5216750;28;20048;-72
2021/06/05 06:00:13;;;;;;;16.88;15.60;;;16.40;88.20;;;;;;5218285;28;20041;-73
2021/06/05 06:02:46;;;;;;;17.30;15.90;;;16.40;88.40;;;;;;5218501;28;20056;-72
2021/06/05 06:05:18;;;;;;;16.88;15.50;;;16.30;88.50;;;;;;5216664;28;20051;-73
2021/06/05 06:07:50;;;;;;;17.15;15.75;;;16.30;88.50;;;;;;5217647;28;20580;-73
2021/06/05 06:10:23;;;;;;;17.35;15.88;;;16.30;88.80;;;;;;5217660;28;20048;-73
2021/06/05 06:12:55;;;;;;;17.02;15.73;;;16.40;88.70;;;;;;5218744;28;20067;-72
2021/06/05 06:15:29;;;;;;;16.73;15.43;;;16.30;88.90;;;;;;5218003;28;20119;-73
2021/06/05 06:18:01;;;;;;;16.55;15.25;;;16.30;89.00;;;;;;5217403;28;20048;-72
2021/06/05 06:20:42;;;;;;;17.05;15.75;;;16.30;89.30;;;;;;5218731;28;20092;-73
2021/06/05 06:23:20;;;;;;;16.98;15.68;;;16.30;89.10;;;;;;5198756;28;20065;-72
2021/06/05 06:25:53;;;;;;;17.15;15.85;;;16.40;89.20;;;;;;5217057;28;20091;-73
2021/06/05 06:28:30;;;;;;;18.08;16.48;;;16.40;88.50;;;;;;5217030;28;20142;-75
2021/06/05 06:31:04;;;;;;;17.05;15.75;;;16.50;88.60;;;;;;5217262;28;20103;-71
2021/06/05 06:33:36;;;;;;;17.77;16.38;;;16.60;89.10;;;;;;5198344;28;20056;-74
2021/06/05 06:36:09;;;;;;;16.90;15.70;;;16.70;88.70;;;;;;5215578;28;20048;-74
2021/06/05 06:38:45;;;;;;;17.42;16.10;;;16.80;88.30;;;;;;5216760;28;20107;-73
2021/06/05 06:41:23;;;;;;;16.90;15.65;;;16.80;88.30;;;;;;5181505;28;20148;-73
2021/06/05 06:43:57;;;;;;;17.25;15.85;;;16.90;88.60;;;;;;5217550;28;20052;-73
2021/06/05 06:46:47;;;;;;;17.17;15.88;;;16.90;87.70;;;;;;5217382;28;20068;-72
2021/06/05 06:49:20;;;;;;;;;;;16.90;87.70;;;;;;5217691;28;20072;-72
2021/06/05 06:51:52;;;;;;;17.83;16.33;;;16.80;87.70;;;;;;5217534;28;19950;-72
2021/06/05 06:54:24;;;;;;;17.65;16.23;;;16.90;88.20;;;;;;5199876;28;20110;-73
2021/06/05 06:56:56;;;;;;;16.73;15.45;;;16.90;88.30;;;;;;5217074;28;20141;-72
2021/06/05 06:59:28;;;;;;;17.45;16.15;;;16.90;87.90;;;;;;5194010;28;20036;-72
2021/06/05 07:02:01;;;;;;;16.92;15.65;;;16.90;88.10;;;;;;5179452;28;20103;-72
2021/06/05 07:04:33;;;;;;;16.63;15.40;;;16.90;88.60;;;;;;5216197;28;20037;-72
2021/06/05 07:07:05;;;;;;;16.80;15.50;;;17.00;88.20;;;;;;5216624;28;20044;-73
2021/06/05 07:09:37;;;;;;;16.95;15.65;;;17.00;88.30;;;;;;5216876;28;20140;-72
2021/06/05 07:12:12;;;;;;;16.88;15.57;;;17.00;88.20;;;;;;5215418;28;20072;-73
2021/06/05 07:14:44;;;;;;;17.42;16.02;;;17.10;88.10;;;;;;5214920;28;20574;-72
2021/06/05 07:17:16;;;;;;;17.33;15.98;;;17.10;88.40;;;;;;5215179;28;20483;-73
2021/06/05 07:19:48;;;;;;;17.35;16.05;;;17.20;88.10;;;;;;5213671;28;20029;-72
2021/06/05 07:22:20;;;;;;;17.35;16.02;;;17.20;87.90;;;;;;5216885;28;20049;-73
2021/06/05 07:24:52;;;;;;;17.70;16.10;;;17.20;88.00;;;;;;5217187;28;20037;-73
2021/06/05 07:27:24;;;;;;;17.23;15.93;;;17.30;88.10;;;;;;5215127;28;20045;-72
2021/06/05 07:29:56;;;;;;;17.60;16.30;;;17.40;88.00;;;;;;5217286;28;20044;-72
2021/06/05 07:32:28;;;;;;;17.02;15.80;;;17.50;88.20;;;;;;5214584;28;20781;-73
2021/06/05 07:35:00;;;;;;;17.40;16.10;;;17.60;88.50;;;;;;5218167;28;20041;-72
2021/06/05 07:37:32;;;;;;;17.63;16.23;;;17.70;88.40;;;;;;5216317;28;20073;-72
2021/06/05 07:40:08;;;;;;;16.38;15.13;;;17.70;88.40;;;;;;5216789;28;20044;-71
2021/06/05 07:42:39;;;;;;;16.58;15.30;;;17.80;87.20;;;;;;5214924;28;20118;-72
2021/06/05 07:45:12;;;;;;;16.63;15.32;;;17.90;87.50;;;;;;5215388;28;20071;-73
2021/06/05 07:47:44;;;;;;;15.85;14.65;;;17.90;87.60;;;;;;5216643;28;20041;-73
2021/06/05 07:50:16;;;;;;;16.40;15.00;;;18.00;87.20;;;;;;5217414;28;20076;-74
2021/06/05 07:52:48;;;;;;;15.30;14.20;;;18.10;87.00;;;;;;5197712;28;20183;-73
2021/06/05 07:55:20;;;;;;;16.20;14.98;;;18.10;86.60;;;;;;5193015;28;20128;-73
2021/06/05 07:57:52;;;;;;;15.95;14.75;;;18.10;86.10;;;;;;5198890;28;20053;-72
2021/06/05 08:00:28;;;;;;;16.25;15.05;;;18.20;86.40;;;;;;5214819;28;20128;-72
2021/06/05 08:03:01;;;;;;;16.20;15.00;;;18.10;85.60;;;;;;5215351;28;20152;-72
2021/06/05 08:05:35;;;;;;;16.10;14.90;;;18.20;85.90;;;;;;5216460;28;20112;-72
2021/06/05 08:08:09;;;;;;;17.00;15.65;;;18.20;85.00;;;;;;5216389;28;20122;-73
2021/06/05 08:10:43;;;;;;;16.33;15.02;;;18.20;85.60;;;;;;5195181;28;20049;-72
2021/06/05 08:13:15;;;;;;;16.52;15.23;;;18.20;85.00;;;;;;5213236;28;20087;-73
2021/06/05 08:15:50;;;;;;;15.43;14.23;;;18.20;84.70;;;;;;5214514;28;20123;-72
2021/06/05 08:18:22;;;;;;;15.57;14.38;;;18.20;84.30;;;;;;5215959;28;20524;-72
2021/06/05 08:20:58;;;;;;;15.57;14.38;;;18.20;84.30;;;;;;5216663;28;20068;-72
2021/06/05 08:23:32;;;;;;;15.85;14.65;;;18.10;83.50;;;;;;5190810;28;20045;-73
2021/06/05 08:26:05;;;;;;;15.35;14.20;;;18.00;83.30;;;;;;5215924;28;20059;-73
2021/06/05 08:28:38;;;;;;;15.70;14.15;;;18.00;83.70;;;;;;5216119;28;20065;-73
2021/06/05 08:31:13;;;;;;;15.40;14.30;;;18.00;84.60;;;;;;5220185;28;20527;-73
2021/06/05 08:33:47;;;;;;;15.20;13.90;;;18.00;83.50;;;;;;5220005;28;20523;-73
2021/06/05 08:36:24;;;;;;;15.32;14.23;;;18.00;84.20;;;;;;5221274;28;20514;-73
2021/06/05 08:38:56;;;;;;;15.15;13.98;;;18.00;84.00;;;;;;5220648;28;20049;-74
2021/06/05 08:41:38;;;;;;;15.32;14.23;;;18.10;85.30;;;;;;5219047;28;20048;-73
2021/06/05 08:44:37;;;;;;;15.40;14.20;;;18.10;85.40;;;;;;5220422;28;20068;-73
2021/06/05 08:47:29;;;;;;;15.13;14.02;;;18.20;84.70;;;;;;5220093;28;20049;-72
2021/06/05 08:50:11;;;;;;;15.02;13.93;;;18.30;85.80;;;;;;5197664;28;20056;-73
2021/06/05 08:52:49;;;;;;;15.38;14.18;;;18.40;84.70;;;;;;5219385;28;20053;-73
2021/06/05 08:55:24;;;;;;;16.00;14.80;;;18.30;83.00;;;;;;5220187;28;20052;-72
2021/06/05 08:58:05;;;;;;;15.73;14.55;;;18.40;83.20;;;;;;5219075;28;20118;-73
2021/06/05 09:00:44;;;;;;;17.10;15.75;;;18.50;84.10;;;;;;5219356;28;20049;-73
2021/06/05 09:03:21;;;;;;;15.90;14.70;;;18.50;81.20;;;;;;5219903;28;20072;-72
2021/06/05 09:06:06;;;;;;;15.57;14.43;;;18.50;81.00;;;;;;5218186;28;20044;-72
2021/06/05 09:08:38;;;;;;;16.05;14.75;;;18.50;81.10;;;;;;5220371;28;20060;-72
2021/06/05 09:11:14;;;;;;;15.68;14.27;;;18.50;82.00;;;;;;5218703;28;20393;-73
2021/06/05 09:13:46;;;;;;;15.80;14.60;;;18.50;80.50;;;;;;5217892;28;20539;-74
2021/06/05 09:16:23;;;;;;;15.82;14.57;;;18.50;80.60;;;;;;5220040;28;20071;-72
2021/06/05 09:19:06;;;;;;;15.88;14.57;;;18.50;81.50;;;;;;5218856;28;20051;-73
2021/06/05 09:21:43;;;;;;;15.68;14.40;;;18.50;80.80;;;;;;5216332;28;20041;-72
2021/06/05 09:24:18;;;;;;;15.70;14.55;;;18.40;79.80;;;;;;5200882;28;20103;-73
2021/06/05 09:27:17;;;;;;;15.93;14.75;;;18.50;80.70;;;;;;5218828;28;20146;-73
2021/06/05 09:29:57;;;;;;;15.80;14.30;;;18.50;80.40;;;;;;5218294;28;20056;-73
2021/06/05 09:32:43;;;;;;;15.48;14.23;;;18.50;80.20;;;;;;5218079;28;20052;-73
2021/06/05 09:35:23;;;;;;;15.25;14.00;;;18.40;80.60;;;;;;5218123;28;20835;-73
2021/06/05 09:38:24;;;;;;;15.38;14.18;;;18.50;80.50;;;;;;5219673;28;20120;-73
2021/06/05 09:41:05;;;;;;;15.07;13.98;;;18.50;81.00;;;;;;5218230;28;20060;-73
2021/06/05 09:43:38;;;;;;;15.63;14.43;;;18.40;80.70;;;;;;5218453;28;20708;-73
2021/06/05 09:46:12;;;;;;;14.95;13.77;;;18.40;80.90;;;;;;5217613;28;20041;-74
2021/06/05 09:48:47;;;;;;;14.85;13.70;;;18.40;81.00;;;;;;5195398;28;20040;-74
2021/06/05 09:51:33;;;;;;;15.07;13.98;;;18.30;78.20;;;;;;5218497;28;20072;-74
2021/06/05 09:54:32;;;;;;;14.65;13.55;;;18.30;79.90;;;;;;5217402;28;20095;-74
2021/06/05 09:57:13;;;;;;;15.38;14.15;;;18.30;79.50;;;;;;5217765;28;20110;-74
2021/06/05 10:00:23;;;;;;;14.68;13.40;;;18.20;80.30;;;;;;5217651;28;20033;-74
2021/06/05 10:03:19;;;;;;;16.13;14.37;;;18.20;79.60;;;;;;5216825;28;20521;-74
2021/06/05 10:05:52;;;;;;;20.63;14.43;;;18.20;80.40;;;;;;5217627;28;20064;-75
2021/06/05 10:08:37;;;;;;;19.02;14.30;;;18.10;79.80;;;;;;5218409;28;20041;-74
2021/06/05 10:11:33;;;;;;;17.58;14.05;;;18.10;81.00;;;;;;5217583;28;20144;-74
2021/06/05 10:14:38;;;;;;;14.75;13.35;;;18.20;80.10;;;;;;5199982;28;20045;-73
2021/06/05 10:17:16;;;;;;;14.35;13.20;;;18.10;80.40;;;;;;5167634;28;20037;-73
2021/06/05 10:19:57;;;;;;;14.60;13.23;;;18.10;79.10;;;;;;5218210;28;20136;-73
2021/06/05 10:22:30;;;;;;;16.23;13.20;;;18.10;80.90;;;;;;5215834;28;20038;-73
2021/06/05 10:25:18;;;;;;;14.88;13.35;;;18.20;81.20;;;;;;5218239;28;20416;-73
2021/06/05 10:27:50;;;;;;;14.50;13.18;;;18.20;80.90;;;;;;5177382;28;20058;-73
2021/06/05 10:30:22;;;;;;;20.85;13.98;;;18.20;81.60;;;;;;5218170;28;20041;-73
2021/06/05 10:32:57;;;;;;;14.23;13.02;;;18.20;80.60;;;;;;5216529;28;20094;-73
2021/06/05 10:35:31;;;;;;;14.02;12.93;;;18.30;81.40;;;;;;5217438;28;20040;-73
2021/06/05 10:38:13;;;;;;;20.08;14.85;;;18.40;81.60;;;;;;5218652;28;20041;-73
2021/06/05 10:40:47;;;;;;;14.88;13.25;;;18.50;80.90;;;;;;5216759;28;20045;-72
2021/06/05 10:43:19;;;;;;;14.10;13.00;;;18.60;81.00;;;;;;5217437;28;20141;-73
2021/06/05 10:45:54;;;;;;;14.52;13.27;;;18.70;82.00;;;;;;5214969;28;20045;-73
2021/06/05 10:48:34;;;;;;;15.50;14.15;;;18.80;81.30;;;;;;5200214;28;20394;-74
2021/06/05 10:51:23;;;;;;;15.52;14.35;;;19.00;80.40;;;;;;5216345;28;20048;-72
2021/06/05 10:54:05;;;;;;;15.60;14.20;;;19.20;81.10;;;;;;5217736;28;20107;-75
2021/06/05 10:56:43;;;;;;;17.08;15.38;;;19.30;80.50;;;;;;5214203;28;20140;-73
2021/06/05 10:59:36;;;;;;;16.08;14.75;;;19.50;80.00;;;;;;5218078;28;20045;-73
2021/06/05 11:02:10;;;;;;;16.15;14.88;;;19.60;77.90;;;;;;5214450;28;20065;-73
2021/06/05 11:04:44;;;;;;;16.05;14.88;;;19.70;76.80;;;;;;5216478;28;20059;-72
2021/06/05 11:07:24;;;;;;;15.50;14.30;;;19.70;78.00;;;;;;5215653;28;20041;-74
2021/06/05 11:10:04;;;;;;;15.55;14.35;;;19.70;75.30;;;;;;5215819;28;20065;-75
2021/06/05 11:12:36;;;;;;;14.93;13.63;;;19.70;76.60;;;;;;5216978;28;20103;-76
2021/06/05 11:15:32;;;;;;;14.98;13.77;;;19.80;77.10;;;;;;5216280;28;20033;-73
2021/06/05 11:18:24;;;;;;;15.32;14.07;;;19.80;75.20;;;;;;5216129;28;20606;-74
2021/06/05 11:20:58;;;;;;;14.45;13.35;;;19.80;73.70;;;;;;5198914;28;20044;-74
2021/06/05 11:23:31;;;;;;;14.45;13.35;;;19.90;73.30;;;;;;5214588;28;20037;-73
2021/06/05 11:26:35;;;;;;;14.48;13.38;;;20.00;74.80;;;;;;5215305;28;20692;-74
2021/06/05 11:29:27;;;;;;;14.60;13.50;;;20.10;73.90;;;;;;5191597;28;20044;-74
2021/06/05 11:32:18;;;;;;;14.75;13.57;;;20.10;72.20;;;;;;5215113;28;20065;-73
2021/06/05 11:34:55;;;;;;;14.45;13.25;;;20.00;72.00;;;;;;5217576;28;20103;-74
2021/06/05 11:37:33;;;;;;;13.85;12.75;;;20.00;71.50;;;;;;5215048;28;20041;-73
2021/06/05 11:40:10;;;;;;;14.07;13.07;;;20.00;72.30;;;;;;5215952;28;20045;-74
2021/06/05 11:42:53;;;;;;;14.02;12.93;;;19.90;73.00;;;;;;5216070;28;20475;-73
2021/06/05 11:45:25;;;;;;;14.10;13.10;;;19.90;72.20;;;;;;5180899;28;20143;-74
2021/06/05 11:47:57;;;;;;;22.23;14.75;;;19.90;73.10;;;;;;5215610;28;20098;-74
2021/06/05 11:50:32;;;;;;;15.75;14.13;;;19.90;72.10;;;;;;5216140;28;20041;-73
2021/06/05 11:53:26;;;;;;;14.85;13.55;;;20.00;73.10;;;;;;5190211;28;20064;-74
2021/06/05 11:56:06;;;;;;;15.20;13.88;;;20.00;73.30;;;;;;5215864;28;20041;-74
2021/06/05 11:58:39;;;;;;;14.13;13.13;;;20.00;75.80;;;;;;5217380;28;20069;-74
2021/06/05 12:01:25;;;;;;;14.07;12.88;;;20.00;73.60;;;;;;5214192;28;20219;-74
2021/06/05 12:04:08;;;;;;;15.35;13.88;;;20.00;74.90;;;;;;5215899;28;20044;-73
2021/06/05 12:06:46;;;;;;;15.38;13.85;;;20.00;74.10;;;;;;5215361;28;20639;-73
2021/06/05 12:09:23;;;;;;;15.80;14.07;;;19.90;74.50;;;;;;5216068;28;20074;-73
2021/06/05 12:12:07;;;;;;;14.50;13.30;;;19.80;74.20;;;;;;5214465;28;20040;-73
2021/06/05 12:17:33;;;;;;;15.15;14.05;;;19.70;74.20;;;;;;5214693;28;20053;-74
2021/06/05 12:20:10;;;;;;;15.70;14.50;;;19.70;74.40;;;;;;5215131;28;20159;-74
2021/06/05 12:22:45;;;;;;;15.02;13.93;;;19.60;73.30;;;;;;5215691;28;20064;-73
2021/06/05 12:25:22;;;;;;;15.48;14.25;;;19.50;74.60;;;;;;5212902;28;20072;-75
2021/06/05 12:28:14;;;;;;;16.67;14.95;;;19.50;74.00;;;;;;5215569;28;20941;-73
2021/06/05 12:30:47;;;;;;;16.15;14.55;;;19.40;74.80;;;;;;5215367;28;20037;-74
2021/06/05 12:33:29;;;;;;;16.02;14.43;;;19.40;75.50;;;;;;5195316;28;20107;-74
2021/06/05 12:36:26;;;;;;;14.80;13.70;;;19.30;75.30;;;;;;5215143;28;20583;-74
2021/06/05 12:39:36;;;;;;;15.35;14.02;;;19.30;75.20;;;;;;5204120;28;20512;-73
2021/06/05 12:42:11;;;;;;;15.10;13.80;;;19.20;74.80;;;;;;5214015;28;20056;-72
2021/06/05 12:44:45;;;;;;;14.85;13.65;;;19.10;76.30;;;;;;5216728;28;20501;-72
2021/06/05 12:47:27;;;;;;;14.60;13.45;;;19.10;76.00;;;;;;5215321;28;20076;-73
2021/06/05 12:50:01;;;;;;;14.40;13.30;;;19.00;75.50;;;;;;5198992;28;20041;-72
2021/06/05 12:52:33;;;;;;;18.98;14.15;;;19.00;77.20;;;;;;5215584;28;20543;-72
2021/06/05 12:55:35;;;;;;;15.07;13.93;;;19.00;75.80;;;;;;5198161;28;20520;-72
2021/06/05 12:58:13;;;;;;;15.15;13.85;;;18.80;74.90;;;;;;5193565;28;20102;-72
2021/06/05 13:00:48;;;;;;;14.98;13.73;;;18.70;73.50;;;;;;5214335;28;20150;-71
2021/06/05 13:03:28;;;;;;;15.80;14.45;;;18.60;74.60;;;;;;5214826;28;20049;-72
2021/06/05 13:06:15;;;;;;;14.63;13.43;;;18.50;74.50;;;;;;5197268;28;20072;-73
2021/06/05 13:08:49;;;;;;;14.57;13.48;;;18.50;75.50;;;;;;5216240;28;20473;-73
2021/06/05 13:11:46;;;;;;;14.80;13.57;;;18.40;75.30;;;;;;5214602;28;20513;-72
2021/06/05 13:14:25;;;;;;;29.58;15.25;;;18.40;76.20;;;;;;5214255;28;20040;-72
2021/06/05 13:17:17;;;;;;;21.58;13.38;;;18.40;77.30;;;;;;5218227;28;20122;-73
2021/06/05 13:19:49;;;;;;;13.40;12.30;;;18.20;75.60;;;;;;5217417;28;20050;-73
2021/06/05 13:22:23;;;;;;;12.18;11.27;;;18.20;76.40;;;;;;5193380;28;20103;-72